createdAt,value
2022-12-28T00:01:49.186Z,27.33
2022-12-28T00:04:21.188Z,54.85
2022-12-28T00:06:53.600Z,34.60
2022-12-28T00:09:25.607Z,37.03
2022-12-28T00:11:57.659Z,33.05
2022-12-28T00:14:29.759Z,26.83
2022-12-28T00:17:01.785Z,21.73
2022-12-28T00:19:34.055Z,20.30
2022-12-28T00:22:06.110Z,21.63
2022-12-28T00:24:38.199Z,22.48
2022-12-28T00:27:10.216Z,27.20
2022-12-28T00:29:42.118Z,24.48
2022-12-28T00:32:14.083Z,29.63
2022-12-28T00:34:45.971Z,30.98
2022-12-28T00:37:20.932Z,33.38
2022-12-28T00:39:52.867Z,33.35
2022-12-28T00:42:24.817Z,21.88
2022-12-28T00:44:56.809Z,23.08
2022-12-28T00:47:28.755Z,25.27
2022-12-28T00:50:00.643Z,34.15
2022-12-28T00:52:32.635Z,39.60
2022-12-28T00:55:04.971Z,32.22
2022-12-28T00:57:41.194Z,30.30
2022-12-28T01:00:13.961Z,29.58
2022-12-28T01:02:45.984Z,21.40
2022-12-28T01:05:18.093Z,28.30
2022-12-28T01:07:50.504Z,18.92
2022-12-28T01:10:22.453Z,24.58
2022-12-28T01:12:54.375Z,21.77
2022-12-28T01:15:26.524Z,21.73
2022-12-28T01:17:58.488Z,24.45
2022-12-28T01:20:30.747Z,25.33
2022-12-28T01:23:02.675Z,21.63
2022-12-28T01:25:34.960Z,23.25
2022-12-28T01:28:06.931Z,25.83
2022-12-28T01:30:39.226Z,32.67
2022-12-28T01:33:11.776Z,24.55
2022-12-28T01:35:43.770Z,21.00
2022-12-28T01:38:15.644Z,22.55
2022-12-28T01:40:47.592Z,27.92
2022-12-28T01:43:29.930Z,31.42
2022-12-28T01:46:03.341Z,26.38
2022-12-28T01:48:37.070Z,23.40
2022-12-28T01:51:09.034Z,25.55
2022-12-28T01:53:41.238Z,22.70
2022-12-28T01:56:13.406Z,22.48
2022-12-28T01:58:46.115Z,18.55
2022-12-28T02:01:18.249Z,22.15
2022-12-28T02:03:50.445Z,20.42
2022-12-28T02:06:22.447Z,19.63
2022-12-28T02:09:02.928Z,23.95
2022-12-28T02:11:35.515Z,24.65
2022-12-28T02:14:08.478Z,25.63
2022-12-28T02:16:40.436Z,30.17
2022-12-28T02:19:16.249Z,29.00
2022-12-28T02:22:41.426Z,25.85
2022-12-28T02:25:50.464Z,22.35
2022-12-28T02:28:52.288Z,27.20
2022-12-28T02:31:53.049Z,21.65
2022-12-28T02:34:50.101Z,20.60
2022-12-28T02:37:28.267Z,23.95
2022-12-28T02:40:08.023Z,16.15
2022-12-28T02:42:41.879Z,20.77
2022-12-28T02:46:01.934Z,23.15
2022-12-28T02:48:59.799Z,21.98
2022-12-28T02:51:31.666Z,23.92
2022-12-28T02:55:03.679Z,21.50
2022-12-28T02:57:38.359Z,18.98
2022-12-28T03:00:17.699Z,23.45
2022-12-28T03:03:21.155Z,22.83
2022-12-28T03:06:34.861Z,23.23
2022-12-28T03:09:27.213Z,24.85
2022-12-28T03:12:12.738Z,20.20
2022-12-28T03:14:58.192Z,24.08
2022-12-28T03:17:50.666Z,22.15
2022-12-28T03:20:48.265Z,24.85
2022-12-28T03:23:41.951Z,20.50
2022-12-28T03:26:33.777Z,17.15
2022-12-28T03:29:27.430Z,18.35
2022-12-28T03:31:59.597Z,24.25
2022-12-28T03:34:32.562Z,22.52
2022-12-28T03:37:27.995Z,23.10
2022-12-28T03:40:19.154Z,20.42
2022-12-28T03:43:13.079Z,17.95
2022-12-28T03:45:55.599Z,17.90
2022-12-28T03:48:28.271Z,19.60
2022-12-28T03:51:00.998Z,23.85
2022-12-28T03:53:42.762Z,23.85
2022-12-28T03:56:17.677Z,17.40
2022-12-28T03:58:50.403Z,19.92
2022-12-28T04:01:22.538Z,24.17
2022-12-28T04:03:54.619Z,25.15
2022-12-28T04:06:27.080Z,29.38
2022-12-28T04:08:59.094Z,32.47
2022-12-28T04:11:31.345Z,21.58
2022-12-28T04:14:10.625Z,28.15
2022-12-28T04:16:43.248Z,22.30
2022-12-28T04:19:15.163Z,24.00
2022-12-28T04:21:47.171Z,24.00
2022-12-28T04:24:19.098Z,23.35
2022-12-28T04:26:51.091Z,22.17
2022-12-28T04:29:23.164Z,23.90
2022-12-28T04:31:55.142Z,21.98
2022-12-28T04:34:27.143Z,24.83
2022-12-28T04:36:59.079Z,25.80
2022-12-28T04:39:55.638Z,22.88
2022-12-28T04:42:22.856Z,23.95
2022-12-28T04:44:54.802Z,24.95
2022-12-28T04:47:26.729Z,28.38
2022-12-28T04:49:58.684Z,29.83
2022-12-28T04:52:30.623Z,36.25
2022-12-28T04:55:02.569Z,31.52
2022-12-28T04:57:34.560Z,31.10
2022-12-28T05:00:07.300Z,29.60
2022-12-28T05:02:39.395Z,27.45
2022-12-28T05:05:11.492Z,33.30
2022-12-28T05:07:43.440Z,30.13
2022-12-28T05:10:15.628Z,28.95
2022-12-28T05:12:47.834Z,27.20
2022-12-28T05:15:19.811Z,27.85
2022-12-28T05:17:52.032Z,27.45
2022-12-28T05:20:24.015Z,26.50
2022-12-28T05:22:55.973Z,32.60
2022-12-28T05:25:27.926Z,27.20
2022-12-28T05:27:59.857Z,27.10
2022-12-28T05:30:31.719Z,31.45
2022-12-28T05:33:03.643Z,25.73
2022-12-28T05:35:36.121Z,33.08
2022-12-28T05:38:08.056Z,30.27
2022-12-28T05:40:40.059Z,30.52
2022-12-28T05:43:11.979Z,37.67
2022-12-28T05:45:43.906Z,35.08
2022-12-28T05:48:15.838Z,29.23
2022-12-28T05:50:47.744Z,33.53
2022-12-28T05:53:19.684Z,30.88
2022-12-28T05:55:51.609Z,33.15
2022-12-28T05:58:23.536Z,32.45
2022-12-28T06:01:03.000Z,30.42
2022-12-28T06:03:35.706Z,32.88
2022-12-28T06:06:19.040Z,26.63
2022-12-28T06:08:51.118Z,28.05
2022-12-28T06:11:25.851Z,30.10
2022-12-28T06:13:59.738Z,28.98
2022-12-28T06:16:34.792Z,25.17
2022-12-28T06:19:08.793Z,30.23
2022-12-28T06:21:41.721Z,28.13
2022-12-28T06:24:14.487Z,33.20
2022-12-28T06:26:46.607Z,28.13
2022-12-28T06:29:18.486Z,30.25
2022-12-28T06:31:51.743Z,27.90
2022-12-28T06:34:23.668Z,24.48
2022-12-28T06:36:57.085Z,29.08
2022-12-28T06:39:29.602Z,31.42
2022-12-28T06:42:01.730Z,24.75
2022-12-28T06:44:35.724Z,23.73
2022-12-28T06:47:11.049Z,24.25
2022-12-28T06:49:43.048Z,28.30
2022-12-28T06:52:14.935Z,27.83
2022-12-28T06:54:46.866Z,25.90
2022-12-28T06:57:18.961Z,32.80
2022-12-28T06:59:50.875Z,25.50
2022-12-28T07:02:23.078Z,30.58
2022-12-28T07:04:55.118Z,23.08
2022-12-28T07:07:27.162Z,21.98
2022-12-28T07:09:59.269Z,26.77
2022-12-28T07:12:31.200Z,25.38
2022-12-28T07:15:03.165Z,26.10
2022-12-28T07:17:35.137Z,23.55
2022-12-28T07:20:07.708Z,21.20
2022-12-28T07:22:39.676Z,29.15
2022-12-28T07:25:11.664Z,25.48
2022-12-28T07:27:45.402Z,23.08
2022-12-28T07:30:18.183Z,24.00
2022-12-28T07:32:50.158Z,20.75
2022-12-28T07:35:22.124Z,22.10
2022-12-28T07:37:54.636Z,26.23
2022-12-28T07:40:26.779Z,25.88
2022-12-28T07:43:00.615Z,29.17
2022-12-28T07:45:32.503Z,27.90
2022-12-28T07:48:04.457Z,29.48
2022-12-28T07:50:38.114Z,25.10
2022-12-28T07:53:10.442Z,31.08
2022-12-28T07:55:43.926Z,34.92
2022-12-28T07:58:15.904Z,28.65
2022-12-28T08:00:47.864Z,34.55
2022-12-28T08:03:20.562Z,25.17
2022-12-28T08:05:52.525Z,28.27
2022-12-28T08:08:24.517Z,24.05
2022-12-28T08:10:56.407Z,21.88
2022-12-28T08:13:31.779Z,26.13
2022-12-28T08:16:04.265Z,23.23
2022-12-28T08:18:36.296Z,22.83
2022-12-28T08:21:12.195Z,21.42
2022-12-28T08:23:44.740Z,21.27
2022-12-28T08:26:19.403Z,19.38
2022-12-28T08:28:53.870Z,20.92
2022-12-28T08:31:32.607Z,22.20
2022-12-28T08:34:06.739Z,19.98
2022-12-28T08:36:38.874Z,21.23
2022-12-28T08:39:11.010Z,17.60
2022-12-28T08:41:43.152Z,19.65
2022-12-28T08:44:15.117Z,20.75
2022-12-28T08:46:47.161Z,24.15
2022-12-28T08:49:19.218Z,19.10
2022-12-28T08:51:51.175Z,19.67
2022-12-28T08:54:23.164Z,21.85
2022-12-28T08:56:55.545Z,19.83
2022-12-28T08:59:27.540Z,19.30
2022-12-28T09:01:59.525Z,20.23
2022-12-28T09:04:31.532Z,18.25
2022-12-28T09:07:03.407Z,18.08
2022-12-28T09:09:35.493Z,19.42
2022-12-28T09:12:10.347Z,16.85
2022-12-28T09:14:42.280Z,17.90
2022-12-28T09:17:14.147Z,15.90
2022-12-28T09:19:46.126Z,18.08
2022-12-28T09:22:18.088Z,15.40
2022-12-28T09:24:50.185Z,16.30
2022-12-28T09:27:22.164Z,16.83
2022-12-28T09:29:54.256Z,20.35
2022-12-28T09:32:26.165Z,16.80
2022-12-28T09:34:58.110Z,17.13
2022-12-28T09:37:30.033Z,17.05
2022-12-28T09:40:02.222Z,19.67
2022-12-28T09:42:40.028Z,17.58
2022-12-28T09:45:12.765Z,17.75
2022-12-28T09:47:50.154Z,21.85
2022-12-28T09:50:30.450Z,17.15
2022-12-28T09:53:22.678Z,18.15
2022-12-28T09:56:19.907Z,16.63
2022-12-28T09:58:52.640Z,20.25
2022-12-28T10:01:27.365Z,21.58
2022-12-28T10:04:01.950Z,20.08
2022-12-28T10:06:37.180Z,17.92
2022-12-28T10:09:16.970Z,21.90
2022-12-28T10:11:48.927Z,19.55
2022-12-28T10:14:27.844Z,19.05
2022-12-28T10:16:59.811Z,18.00
2022-12-28T10:19:31.809Z,21.08
2022-12-28T10:22:07.285Z,20.48
2022-12-28T10:24:41.164Z,19.60
2022-12-28T10:27:23.483Z,17.73
2022-12-28T10:29:55.850Z,19.50
2022-12-28T10:32:27.768Z,15.98
2022-12-28T10:35:01.743Z,21.20
2022-12-28T10:37:38.192Z,22.77
2022-12-28T10:40:26.615Z,17.08
2022-12-28T10:43:03.019Z,17.50
2022-12-28T10:45:41.773Z,20.60
2022-12-28T10:48:19.158Z,17.40
2022-12-28T10:50:55.598Z,19.40
2022-12-28T10:53:45.178Z,19.58
2022-12-28T10:56:21.876Z,20.17
2022-12-28T10:59:15.137Z,20.30
2022-12-28T11:01:47.428Z,17.60
2022-12-28T11:04:24.477Z,21.35
2022-12-28T11:07:01.720Z,22.55
2022-12-28T11:09:35.667Z,23.98
2022-12-28T11:12:23.039Z,27.17
2022-12-28T11:14:56.531Z,31.35
2022-12-28T11:17:31.207Z,23.00
2022-12-28T11:20:17.829Z,28.90
2022-12-28T11:22:49.777Z,25.90
2022-12-28T11:25:30.237Z,27.65
2022-12-28T11:28:07.349Z,24.30
2022-12-28T11:30:39.295Z,24.35
2022-12-28T11:33:35.887Z,23.38
2022-12-28T11:36:16.543Z,26.25
2022-12-28T11:38:51.057Z,23.52
2022-12-28T11:41:33.918Z,25.00
2022-12-28T11:44:06.492Z,25.42
2022-12-28T11:46:40.112Z,24.10
2022-12-28T11:49:33.391Z,30.65
2022-12-28T11:52:17.698Z,37.70
2022-12-28T11:54:56.911Z,29.67
2022-12-28T11:57:40.329Z,25.92
2022-12-28T12:00:23.303Z,26.60
2022-12-28T12:02:58.608Z,25.73
2022-12-28T12:05:39.466Z,30.27
2022-12-28T12:11:09.748Z,25.00
2022-12-28T12:13:49.234Z,27.30
2022-12-28T12:16:47.411Z,21.63
2022-12-28T12:19:32.045Z,25.67
2022-12-28T12:22:24.349Z,25.33
2022-12-28T12:25:02.569Z,26.63
2022-12-28T12:27:40.291Z,25.92
2022-12-28T12:30:17.836Z,19.63
2022-12-28T12:32:56.935Z,25.27
2022-12-28T12:35:46.973Z,16.98
2022-12-28T12:38:37.379Z,16.23
2022-12-28T12:41:25.433Z,15.25
2022-12-28T12:44:10.393Z,17.92
2022-12-28T12:46:53.007Z,14.52
2022-12-28T12:49:49.816Z,15.40
2022-12-28T12:53:02.806Z,17.20
2022-12-28T12:55:52.969Z,19.92
2022-12-28T12:58:31.385Z,26.38
2022-12-28T13:01:40.534Z,32.90
2022-12-28T13:04:20.948Z,42.72
2022-12-28T13:06:57.828Z,23.65
2022-12-28T13:09:33.187Z,22.95
2022-12-28T13:12:18.526Z,26.73
2022-12-28T13:14:59.401Z,20.75
2022-12-28T13:20:21.636Z,20.55
2022-12-28T13:22:55.091Z,21.00
2022-12-28T13:25:34.845Z,21.65
2022-12-28T13:28:06.788Z,20.63
2022-12-28T13:30:38.897Z,18.38
2022-12-28T13:33:21.272Z,14.63
2022-12-28T13:36:06.135Z,16.13
2022-12-28T13:38:38.228Z,16.45
2022-12-28T13:41:25.353Z,16.42
2022-12-28T13:44:11.803Z,16.20
2022-12-28T13:46:47.197Z,20.35
2022-12-28T13:49:20.450Z,18.98
2022-12-28T13:51:53.630Z,20.85
2022-12-28T13:54:26.250Z,18.30
2022-12-28T13:57:14.757Z,22.83
2022-12-28T13:59:52.909Z,23.25
2022-12-28T14:02:27.620Z,15.25
2022-12-28T14:05:00.297Z,20.02
2022-12-28T14:07:36.075Z,20.27
2022-12-28T14:10:08.933Z,20.15
2022-12-28T14:12:41.556Z,28.52
2022-12-28T14:15:15.783Z,20.20
2022-12-28T14:17:50.882Z,18.10
2022-12-28T14:20:23.189Z,16.35
2022-12-28T14:22:55.210Z,17.38
2022-12-28T14:25:27.291Z,18.52
2022-12-28T14:28:02.681Z,16.25
2022-12-28T14:30:41.345Z,12.63
2022-12-28T14:33:24.610Z,13.70
2022-12-28T14:36:00.547Z,22.33
2022-12-28T14:38:35.025Z,21.92
2022-12-28T14:41:07.724Z,25.55
2022-12-28T14:43:39.621Z,21.98
2022-12-28T14:46:36.520Z,19.38
2022-12-28T14:49:32.020Z,18.83
2022-12-28T14:52:10.398Z,17.98
2022-12-28T14:54:53.157Z,18.40
2022-12-28T14:57:39.369Z,16.80
2022-12-28T15:00:23.452Z,15.68
2022-12-28T15:02:57.806Z,26.38
2022-12-28T15:05:35.922Z,23.75
2022-12-28T15:08:08.911Z,24.40
2022-12-28T15:10:50.317Z,23.33
2022-12-28T15:13:22.818Z,21.70
2022-12-28T15:15:57.065Z,21.40
2022-12-28T15:18:31.021Z,26.10
2022-12-28T15:21:06.747Z,21.10
2022-12-28T15:23:38.756Z,19.40
2022-12-28T15:26:12.781Z,18.40
2022-12-28T15:28:44.714Z,19.60
2022-12-28T15:31:21.034Z,22.73
2022-12-28T15:33:53.024Z,21.85
2022-12-28T15:36:25.208Z,17.63
2022-12-28T15:38:57.599Z,20.42
2022-12-28T15:41:48.103Z,19.38
2022-12-28T15:44:20.899Z,18.75
2022-12-28T15:46:53.087Z,18.17
2022-12-28T15:49:25.000Z,17.77
2022-12-28T15:51:56.874Z,24.38
2022-12-28T15:54:28.751Z,28.40
2022-12-28T15:57:00.597Z,22.45
2022-12-28T15:59:32.524Z,27.95
2022-12-28T16:02:04.665Z,47.88
2022-12-28T16:04:36.771Z,31.45
2022-12-28T16:07:08.711Z,42.05
2022-12-28T16:09:40.626Z,32.45
2022-12-28T16:12:17.554Z,36.45
2022-12-28T16:14:49.649Z,34.38
2022-12-28T16:17:21.584Z,33.88
2022-12-28T16:19:53.436Z,29.38
2022-12-28T16:22:25.368Z,30.40
2022-12-28T16:24:57.256Z,35.65
2022-12-28T16:27:29.123Z,33.13
2022-12-28T16:30:00.962Z,30.42
2022-12-28T16:32:32.915Z,25.45
2022-12-28T16:35:05.235Z,22.05
2022-12-28T16:37:37.276Z,27.30
2022-12-28T16:40:10.027Z,16.85
2022-12-28T16:42:46.265Z,18.58
2022-12-28T16:45:18.286Z,20.30
2022-12-28T16:47:50.159Z,24.08
2022-12-28T16:50:22.028Z,22.15
2022-12-28T16:52:54.075Z,18.23
2022-12-28T16:55:25.963Z,22.02
2022-12-28T16:57:58.150Z,21.90
2022-12-28T17:00:30.080Z,16.90
2022-12-28T17:03:02.175Z,19.85
2022-12-28T17:05:35.828Z,19.08
2022-12-28T17:08:08.588Z,17.85
2022-12-28T17:10:43.940Z,19.88
2022-12-28T17:13:16.593Z,19.27
2022-12-28T17:15:49.014Z,17.30
2022-12-28T17:18:20.917Z,18.17
2022-12-28T17:20:52.895Z,21.63
2022-12-28T17:23:24.811Z,17.13
2022-12-28T17:25:56.731Z,19.10
2022-12-28T17:28:29.756Z,51.03
2022-12-28T17:31:10.207Z,20.17
2022-12-28T17:33:50.980Z,19.27
2022-12-28T17:36:23.165Z,16.50
2022-12-28T17:38:55.191Z,17.75
2022-12-28T17:41:27.998Z,18.20
2022-12-28T17:44:00.730Z,22.17
2022-12-28T17:46:33.494Z,19.95
2022-12-28T17:49:05.583Z,16.73
2022-12-28T17:51:41.021Z,18.00
2022-12-28T17:54:15.251Z,21.92
2022-12-28T17:56:47.844Z,20.15
2022-12-28T17:59:19.846Z,19.65
2022-12-28T18:01:52.370Z,19.67
2022-12-28T18:04:24.429Z,20.60
2022-12-28T18:06:56.397Z,26.33
2022-12-28T18:09:28.419Z,20.35
2022-12-28T18:12:00.817Z,19.35
2022-12-28T18:14:32.780Z,21.02
2022-12-28T18:17:04.840Z,18.60
2022-12-28T18:19:37.474Z,13.23
2022-12-28T18:22:09.520Z,16.98
2022-12-28T18:24:41.472Z,20.38
2022-12-28T18:27:13.417Z,17.80
2022-12-28T18:29:45.683Z,21.08
2022-12-28T18:32:17.622Z,17.42
2022-12-28T18:34:49.530Z,16.63
2022-12-28T18:37:21.483Z,20.15
2022-12-28T18:39:53.488Z,24.50
2022-12-28T18:42:26.002Z,20.63
2022-12-28T18:44:58.420Z,18.35
2022-12-28T18:47:33.328Z,22.10
2022-12-28T18:50:05.613Z,20.65
2022-12-28T18:52:40.257Z,18.35
2022-12-28T18:55:12.147Z,18.83
2022-12-28T18:57:44.117Z,19.05
2022-12-28T19:00:16.226Z,21.15
2022-12-28T19:02:51.768Z,19.58
2022-12-28T19:05:23.743Z,17.27
2022-12-28T19:07:55.595Z,19.40
2022-12-28T19:10:27.494Z,18.67
2022-12-28T19:12:59.669Z,17.83
2022-12-28T19:15:31.895Z,16.90
2022-12-28T19:18:03.940Z,17.80
2022-12-28T19:20:35.944Z,18.15
2022-12-28T19:23:08.063Z,18.00
2022-12-28T19:25:40.019Z,17.52
2022-12-28T19:28:12.037Z,17.08
2022-12-28T19:30:43.943Z,17.52
2022-12-28T19:33:15.885Z,18.45
2022-12-28T19:35:47.866Z,18.83
2022-12-28T19:38:19.783Z,21.02
2022-12-28T19:40:54.578Z,20.58
2022-12-28T19:43:26.510Z,22.52
2022-12-28T19:46:05.855Z,18.92
2022-12-28T19:48:38.432Z,18.70
2022-12-28T19:51:11.374Z,18.58
2022-12-28T19:53:43.292Z,19.45
2022-12-28T19:56:17.312Z,18.08
2022-12-28T19:58:49.530Z,16.55
2022-12-28T20:01:25.078Z,15.98
2022-12-28T20:03:57.470Z,18.92
2022-12-28T20:06:29.862Z,16.80
2022-12-28T20:09:02.039Z,17.25
2022-12-28T20:11:33.983Z,17.90
2022-12-28T20:14:06.445Z,15.70
2022-12-28T20:16:39.059Z,16.55
2022-12-28T20:19:13.046Z,15.70
2022-12-28T20:21:44.900Z,14.93
2022-12-28T20:24:17.846Z,17.27
2022-12-28T20:26:49.750Z,17.20
2022-12-28T20:29:21.612Z,17.13
2022-12-28T20:31:53.551Z,16.13
2022-12-28T20:34:27.340Z,16.58
2022-12-28T20:36:59.283Z,17.35
2022-12-28T20:39:31.213Z,16.58
2022-12-28T20:42:21.900Z,16.52
2022-12-28T20:44:57.711Z,17.13
2022-12-28T20:47:29.687Z,23.73
2022-12-28T20:50:04.088Z,22.98
2022-12-28T20:52:36.271Z,20.42
2022-12-28T20:55:08.583Z,21.88
2022-12-28T20:57:40.433Z,19.65
2022-12-28T21:00:13.016Z,16.50
2022-12-28T21:02:45.255Z,19.20
2022-12-28T21:05:17.181Z,18.40
2022-12-28T21:07:49.130Z,19.23
2022-12-28T21:10:21.062Z,19.88
2022-12-28T21:12:53.020Z,16.88
2022-12-28T21:15:25.026Z,22.88
2022-12-28T21:17:57.600Z,20.45
2022-12-28T21:20:34.015Z,20.48
2022-12-28T21:23:10.619Z,22.48
2022-12-28T21:25:42.515Z,22.88
2022-12-28T21:28:14.477Z,15.20
2022-12-28T21:30:53.696Z,16.02
2022-12-28T21:33:25.759Z,15.38
2022-12-28T21:36:10.528Z,14.88
2022-12-28T21:38:44.229Z,16.05
2022-12-28T21:41:41.758Z,15.13
2022-12-28T21:44:14.777Z,17.23
2022-12-28T21:46:49.327Z,21.20
2022-12-28T21:49:21.794Z,17.50
2022-12-28T21:51:53.777Z,15.70
2022-12-28T21:54:26.666Z,18.25
2022-12-28T21:56:58.615Z,19.33
2022-12-28T21:59:30.540Z,17.10
2022-12-28T22:02:21.199Z,15.85
2022-12-28T22:05:11.763Z,16.63
2022-12-28T22:07:43.757Z,13.48
2022-12-28T22:10:34.190Z,17.15
2022-12-28T22:13:06.115Z,18.75
2022-12-28T22:15:53.130Z,16.40
2022-12-28T22:21:20.269Z,16.30
2022-12-28T22:23:52.415Z,16.48
2022-12-28T22:26:24.750Z,16.70
2022-12-28T22:28:56.720Z,15.13
2022-12-28T22:31:28.760Z,14.82
2022-12-28T22:34:06.813Z,15.05
2022-12-28T22:36:39.166Z,14.15
2022-12-28T22:39:11.207Z,15.35
2022-12-28T22:41:43.218Z,17.42
2022-12-28T22:44:15.080Z,16.60
2022-12-28T22:46:47.075Z,14.55
2022-12-28T22:49:18.903Z,15.75
2022-12-28T22:51:50.877Z,14.90
2022-12-28T22:54:22.978Z,15.82
2022-12-28T22:56:54.935Z,15.98
2022-12-28T22:59:26.885Z,17.38
2022-12-28T23:01:58.937Z,14.85
2022-12-28T23:04:31.140Z,18.42
2022-12-28T23:07:04.090Z,14.02
2022-12-28T23:09:37.037Z,15.52
2022-12-28T23:12:09.031Z,11.85
2022-12-28T23:14:59.690Z,13.32
2022-12-28T23:17:31.591Z,14.13
2022-12-28T23:20:33.187Z,12.80
2022-12-28T23:23:23.782Z,13.02
2022-12-28T23:26:14.608Z,15.38
2022-12-28T23:31:18.421Z,14.10
2022-12-28T23:33:50.417Z,12.48
2022-12-28T23:36:22.386Z,13.75
2022-12-28T23:38:54.244Z,14.02
2022-12-28T23:41:46.494Z,15.43
2022-12-28T23:44:24.749Z,14.45
2022-12-28T23:46:59.288Z,12.85
2022-12-28T23:49:31.655Z,11.48
2022-12-28T23:52:03.831Z,12.13
2022-12-28T23:54:35.874Z,14.05
2022-12-28T23:57:07.994Z,13.98
2022-12-28T23:59:39.858Z,14.60
